OSL weather

Oslo Gardermoen Airport
Oslo, Akershus, Norway

Public forecast

Using degrees Celsius for public forecast. Weather courtesy of forecast.io.

Current aviation weather report (METAR) for Oslo Gardermoen Airport

Retrieved 2019/10/19 21:20 UTC (28 minutes ago):

ENGM 192120Z 04001KT 9999 FEW008 BKN019 04/04 Q1006

Aviation forecast (TAF) for Oslo Gardermoen Airport

Retrieved 2019/10/19 18:57 UTC (3 hours ago):

TAF ENGM 191700Z 1918/2018 VRB05KT 9999 FEW010 BKN020 BECMG 1922/1924 02010KT PROB40 2000/2005 BKN008 TEMPO 2005/2013 4000 RADZ BR BKN008